Time;durP1;ratioP1;P1;durP2;ratioP2;P2;SDS_P1;SDS_P2;PMS_P1;PMS_P2;Temp;Humidity;BMP_temperature;BMP_pressure;BME280_temperature;BME280_humidity;BME280_pressure;Samples;Min_cycle;Max_cycle;Signal;HPM_P1;HPM_P2
2020/12/02 00:00:09;;;;;;;89.05;40.10;;;;;;;-1.14;75.36;101720.25;1699389;83;26030;-89
2020/12/02 00:03:21;;;;;;;88.00;38.10;;;;;;;-1.15;75.46;101722.02;1727994;81;25860;-87
2020/12/02 00:05:54;;;;;;;88.42;38.35;;;;;;;-1.13;75.57;101720.61;1700605;83;25729;-86
2020/12/02 00:08:38;;;;;;;90.17;41.88;;;;;;;-1.15;75.56;101725.11;1719136;81;27553;-85
2020/12/02 00:11:09;;;;;;;92.17;39.25;;;;;;;-1.14;75.54;101717.16;1680832;83;25894;-85
2020/12/02 00:13:41;;;;;;;88.45;41.05;;;;;;;-1.12;75.64;101724.95;1719753;81;25834;-84
2020/12/02 00:16:12;;;;;;;88.33;41.35;;;;;;;-1.12;75.60;101722.33;1705675;81;25798;-83
2020/12/02 00:18:40;;;;;;;86.22;35.75;;;;;;;-1.24;75.63;101721.21;1669945;84;25860;-83
2020/12/02 00:21:08;;;;;;;88.03;39.85;;;;;;;-1.24;75.63;101721.21;1677197;84;27765;-84
2020/12/02 00:23:35;;;;;;;87.10;39.53;;;;;;;-1.24;75.52;101723.02;1674678;84;26439;-85
2020/12/02 00:26:06;;;;;;;88.37;41.53;;;;;;;-1.26;75.55;101728.82;1676162;83;25878;-84
2020/12/02 00:28:35;;;;;;;91.50;40.38;;;;;;;-1.26;75.87;101738.84;1652894;84;25768;-84
2020/12/02 00:31:02;;;;;;;83.62;38.38;;;;;;;-1.31;75.65;101742.67;1675665;83;25781;-84
2020/12/02 00:33:30;;;;;;;86.65;38.53;;;;;;;-1.37;75.74;101743.86;1686972;83;28282;-84
2020/12/02 00:35:57;;;;;;;101.07;42.70;;;;;;;-1.42;75.79;101735.83;1666203;84;26478;-84
2020/12/02 00:38:25;;;;;;;95.30;39.85;;;;;;;-1.45;75.96;101745.21;1683837;82;25789;-84
2020/12/02 00:40:53;;;;;;;89.05;41.02;;;;;;;-1.50;75.86;101740.66;1706822;83;26112;-83
2020/12/02 00:43:27;;;;;;;95.92;42.33;;;;;;;-1.51;76.11;101749.45;1697974;81;25910;-83
2020/12/02 00:45:58;;;;;;;86.87;37.83;;;;;;;-1.51;76.29;101748.14;1680722;83;27442;-83
2020/12/02 00:48:30;;;;;;;89.45;38.45;;;;;;;-1.65;76.33;101725.25;1686857;83;25887;-84
2020/12/02 00:50:59;;;;;;;81.25;37.75;;;;;;;-1.61;76.35;101732.03;1683272;83;26420;-84
2020/12/02 00:53:30;;;;;;;95.57;37.38;;;;;;;-1.57;76.49;101740.12;1700208;82;25716;-86
2020/12/02 00:55:58;;;;;;;85.47;35.10;;;;;;;-1.57;76.49;101740.12;1700037;83;25883;-84
2020/12/02 00:58:36;;;;;;;79.53;35.70;;;;;;;-1.57;76.56;101728.31;1655617;83;28424;-84
2020/12/02 01:01:08;;;;;;;88.55;38.98;;;;;;;-1.65;76.20;101730.51;1676642;84;25902;-84
2020/12/02 01:03:35;;;;;;;89.05;38.33;;;;;;;-1.65;76.20;101730.51;1662531;85;26113;-83
2020/12/02 01:06:05;;;;;;;90.83;37.25;;;;;;;-1.64;76.51;101734.35;1662193;85;25924;-84
2020/12/02 01:08:37;;;;;;;92.57;41.05;;;;;;;-1.63;76.59;101729.50;1665072;83;25821;-83
2020/12/02 01:11:22;;;;;;;94.00;38.80;;;;;;;-1.61;76.58;101730.27;1667776;84;27614;-83
2020/12/02 01:14:00;;;;;;;85.85;37.93;;;;;;;-1.59;76.51;101739.37;1662045;85;25882;-83
2020/12/02 01:16:35;;;;;;;85.25;36.23;;;;;;;-1.65;76.45;101731.81;1674506;85;25788;-83
2020/12/02 01:19:08;;;;;;;92.97;37.78;;;;;;;-1.66;76.51;101728.80;1678012;83;25971;-84
2020/12/02 01:22:13;;;;;;;82.02;34.58;;;;;;;-1.70;76.60;101728.13;1689267;83;25766;-83
2020/12/02 01:24:51;;;;;;;86.95;36.98;;;;;;;-1.72;76.48;101727.36;1692187;83;27322;-83
2020/12/02 01:27:38;;;;;;;81.08;34.75;;;;;;;-1.81;76.71;101726.52;1663117;84;25875;-84
2020/12/02 01:30:16;;;;;;;87.27;37.98;;;;;;;-1.73;76.70;101726.09;1860531;76;25658;-84
2020/12/02 01:32:45;;;;;;;82.50;35.80;;;;;;;-1.87;76.75;101738.66;1780698;77;25953;-84
2020/12/02 01:35:17;;;;;;;78.47;35.48;;;;;;;-1.87;76.75;101738.66;1778212;77;27588;-83
2020/12/02 01:37:46;;;;;;;75.40;32.90;;;;;;;-1.87;76.92;101733.41;1773806;78;26293;-84
2020/12/02 01:40:27;;;;;;;74.58;33.02;;;;;;;-1.88;76.94;101731.70;1719178;82;25811;-83
2020/12/02 01:43:04;;;;;;;86.05;37.50;;;;;;;-1.90;77.02;101726.14;1709044;81;25823;-84
2020/12/02 01:45:36;;;;;;;84.58;36.28;;;;;;;-1.90;77.02;101726.14;1707734;80;25848;-83
2020/12/02 01:48:52;;;;;;;73.02;32.17;;;;;;;-1.88;77.01;101724.31;1723779;82;27544;-84
2020/12/02 01:51:33;;;;;;;86.15;37.35;;;;;;;-1.92;76.97;101729.31;1739839;80;25894;-84
2020/12/02 01:54:09;;;;;;;84.37;35.58;;;;;;;-1.97;77.04;101724.78;1739703;80;25818;-84
2020/12/02 01:56:57;;;;;;;73.87;32.88;;;;;;;-1.98;77.16;101727.01;1731193;80;26069;-84
2020/12/02 01:59:50;;;;;;;94.22;38.58;;;;;;;-2.00;77.14;101718.36;1769749;80;25485;-83
2020/12/02 02:03:00;;;;;;;90.32;38.85;;;;;;;-2.00;77.37;101716.59;1735755;80;27521;-83
2020/12/02 02:05:35;;;;;;;83.70;36.35;;;;;;;-2.04;77.24;101715.06;1726926;82;25812;-83
2020/12/02 02:08:03;;;;;;;77.90;33.23;;;;;;;-2.04;77.32;101709.81;1727996;80;25764;-84
2020/12/02 02:10:35;;;;;;;71.90;33.25;;;;;;;-2.02;77.24;101715.83;1693709;80;25802;-83
2020/12/02 02:13:31;;;;;;;88.42;38.85;;;;;;;-2.04;77.24;101717.69;1732220;80;25924;-84
2020/12/02 02:16:10;;;;;;;75.37;32.42;;;;;;;-1.99;77.36;101715.66;1734165;80;28263;-83
2020/12/02 02:18:38;;;;;;;78.12;33.13;;;;;;;-2.01;77.19;101719.31;1742162;80;25960;-83
2020/12/02 02:21:16;;;;;;;85.03;37.93;;;;;;;-2.04;77.09;101715.06;1711349;80;25838;-83
2020/12/02 02:23:45;;;;;;;82.78;37.08;;;;;;;-2.08;77.18;101714.84;1769221;80;26463;-84
2020/12/02 02:26:39;;;;;;;80.28;33.67;;;;;;;-2.10;77.19;101713.22;1736401;80;25699;-83
2020/12/02 02:29:30;;;;;;;84.50;35.92;;;;;;;-2.11;77.23;101710.19;1724325;81;27309;-83
2020/12/02 02:32:10;;;;;;;81.92;35.65;;;;;;;-2.14;77.23;101711.68;1716556;81;34938;-84
2020/12/02 02:34:42;;;;;;;88.58;39.10;;;;;;;-2.19;77.28;101713.22;1739301;81;32603;-83
2020/12/02 02:37:13;;;;;;;87.62;37.90;;;;;;;-2.22;77.31;101708.61;1672218;83;25856;-83
2020/12/02 02:39:40;;;;;;;;;;;;;;;-2.21;77.55;101710.29;1705953;83;25863;-83
2020/12/02 02:42:36;;;;;;;83.78;37.53;;;;;;;-2.22;77.47;101706.81;1720722;81;27601;-83
2020/12/02 02:45:17;;;;;;;86.57;38.88;;;;;;;-2.21;77.59;101706.35;1739303;81;26193;-84
2020/12/02 02:47:46;;;;;;;86.12;40.98;;;;;;;-2.20;77.57;101706.27;1707282;81;25866;-83
2020/12/02 02:50:18;;;;;;;86.70;35.38;;;;;;;-2.21;77.52;101706.35;1731496;81;25846;-83
2020/12/02 02:52:45;;;;;;;80.22;36.35;;;;;;;-2.23;77.53;101705.13;1683845;81;25432;-83
2020/12/02 02:55:17;;;;;;;81.45;35.50;;;;;;;-2.23;77.75;101701.19;1709052;81;27511;-83
2020/12/02 02:57:44;;;;;;;71.20;30.75;;;;;;;-2.24;77.70;101699.94;1706752;81;25905;-82
2020/12/02 03:00:17;;;;;;;90.10;38.98;;;;;;;-2.26;77.78;101693.46;1735824;81;25802;-84
2020/12/02 03:02:44;;;;;;;87.47;38.40;;;;;;;-2.26;77.83;101709.20;1743787;81;25768;-83
2020/12/02 03:05:14;;;;;;;98.22;40.35;;;;;;;-2.26;77.93;101703.10;1684018;81;25854;-83
2020/12/02 03:07:43;;;;;;;91.70;38.38;;;;;;;-2.29;78.00;101703.28;1714532;81;27295;-83
2020/12/02 03:10:16;;;;;;;99.28;42.00;;;;;;;-2.31;78.02;101705.99;1725687;81;25796;-82
2020/12/02 03:12:51;;;;;;;99.03;44.03;;;;;;;-2.27;78.32;101703.59;1823131;78;25857;-83
2020/12/02 03:15:20;;;;;;;105.35;41.13;;;;;;;-2.35;78.20;101700.48;1768585;78;25813;-83
2020/12/02 03:17:47;;;;;;;100.07;42.10;;;;;;;-2.33;78.16;101702.56;1763558;78;27081;-84
2020/12/02 03:20:25;;;;;;;87.67;39.08;;;;;;;-2.30;78.24;101706.36;1797611;78;26112;-83
2020/12/02 03:22:52;;;;;;;103.72;41.85;;;;;;;-2.27;78.20;101702.73;1767829;78;25802;-83
2020/12/02 03:25:28;;;;;;;93.95;40.00;;;;;;;-2.33;78.16;101702.56;1779045;78;26361;-82
2020/12/02 03:27:55;;;;;;;102.32;42.03;;;;;;;-2.32;78.29;101697.72;1764362;80;25934;-84
2020/12/02 03:30:23;;;;;;;84.47;37.67;;;;;;;-2.32;78.60;101695.55;1759164;80;27537;-84
2020/12/02 03:32:50;;;;;;;95.80;40.50;;;;;;;-2.35;78.38;101705.73;1767796;78;25837;-84
2020/12/02 03:35:17;;;;;;;103.58;43.95;;;;;;;-2.35;78.35;101696.55;1775983;80;25759;-84
2020/12/02 03:37:45;;;;;;;105.35;44.80;;;;;;;-2.40;78.13;101690.70;1764668;78;25436;-84
2020/12/02 03:40:12;;;;;;;91.22;37.35;;;;;;;-2.40;78.13;101690.70;1800250;78;26156;-84
2020/12/02 03:42:41;;;;;;;81.37;35.03;;;;;;;-2.39;78.28;101696.33;1775717;78;27513;-83
2020/12/02 03:45:11;;;;;;;90.05;38.30;;;;;;;-2.40;78.18;101697.27;1763752;80;25766;-84
2020/12/02 03:47:38;;;;;;;88.58;38.08;;;;;;;-2.43;78.13;101694.78;1782509;78;26502;-83
2020/12/02 03:50:09;;;;;;;79.65;34.23;;;;;;;-2.45;78.23;101697.95;1796814;78;25818;-84
2020/12/02 03:52:37;;;;;;;74.12;34.48;;;;;;;-2.46;78.25;101698.41;1787768;79;26073;-84
2020/12/02 03:55:06;;;;;;;78.28;33.65;;;;;;;-2.48;78.23;101701.58;1736377;80;27536;-83
2020/12/02 03:57:35;;;;;;;73.57;33.85;;;;;;;-2.43;78.30;101702.66;1734451;80;25728;-84
2020/12/02 04:00:07;;;;;;;78.35;35.08;;;;;;;-2.45;78.12;101700.12;1769237;80;26433;-84
2020/12/02 04:02:35;;;;;;;61.50;27.25;;;;;;;-2.46;78.12;101701.03;1713745;83;25761;-84
2020/12/02 04:05:03;;;;;;;69.67;32.23;;;;;;;-2.45;78.04;101701.89;1738205;80;26508;-84
2020/12/02 04:07:31;;;;;;;67.17;31.93;;;;;;;-2.50;77.99;101702.11;1738815;80;28468;-84
2020/12/02 04:09:58;;;;;;;68.12;30.00;;;;;;;-2.49;78.13;101709.07;1768010;80;25759;-83
2020/12/02 04:12:26;;;;;;;70.17;31.33;;;;;;;-2.46;78.09;101708.08;1724419;81;25685;-84
2020/12/02 04:14:53;;;;;;;72.55;34.70;;;;;;;-2.48;78.12;101711.24;1721036;81;25799;-83
2020/12/02 04:17:21;;;;;;;77.35;34.73;;;;;;;-2.47;78.27;101701.97;1729868;80;26011;-84
2020/12/02 04:19:48;;;;;;;63.68;30.97;;;;;;;-2.41;78.24;101709.98;1730741;81;28644;-84
2020/12/02 04:22:15;;;;;;;66.40;29.05;;;;;;;-2.45;77.98;101716.31;1686965;81;25903;-83
2020/12/02 04:24:42;;;;;;;56.02;27.90;;;;;;;-2.49;77.94;101705.59;1721156;81;26345;-84
2020/12/02 04:27:10;;;;;;;58.10;28.17;;;;;;;-2.52;77.96;101714.91;1724870;81;25762;-83
2020/12/02 04:29:37;;;;;;;60.67;25.72;;;;;;;-2.54;77.97;101717.63;1754479;81;25884;-84
2020/12/02 04:32:05;;;;;;;54.27;25.55;;;;;;;-2.53;78.08;101716.71;1697837;81;27602;-84
2020/12/02 04:34:33;;;;;;;65.50;30.80;;;;;;;-2.58;77.92;101708.67;1698492;82;26378;-84
2020/12/02 04:37:00;;;;;;;62.05;28.57;;;;;;;-2.61;78.02;101714.91;1705977;81;25822;-83
2020/12/02 04:39:28;;;;;;;61.13;29.15;;;;;;;-2.61;78.06;101714.91;1738425;81;25722;-83
2020/12/02 04:41:55;;;;;;;68.35;29.32;;;;;;;-2.61;78.02;101714.09;1721688;81;25776;-84
2020/12/02 04:44:23;;;;;;;58.45;27.52;;;;;;;-2.60;78.07;101713.14;1710564;82;27531;-84
2020/12/02 04:46:56;;;;;;;67.25;30.35;;;;;;;-2.62;78.06;101708.44;1693280;81;25912;-83
2020/12/02 04:49:33;;;;;;;55.20;25.70;;;;;;;-2.65;78.09;101711.23;1759201;81;25789;-84
2020/12/02 04:52:05;;;;;;;54.98;23.35;;;;;;;-2.68;78.22;101709.61;1738465;81;26244;-84
2020/12/02 04:54:32;;;;;;;64.97;27.77;;;;;;;-2.71;78.37;101708.43;1706322;83;26144;-83
2020/12/02 04:56:59;;;;;;;62.33;29.70;;;;;;;-2.76;78.09;101711.73;1700945;81;27324;-83
2020/12/02 04:59:42;;;;;;;54.27;24.18;;;;;;;-2.78;78.12;101706.20;1737475;81;25698;-83
2020/12/02 05:02:27;;;;;;;57.03;24.32;;;;;;;-2.76;78.21;101713.53;1715654;82;26113;-83
2020/12/02 05:05:02;;;;;;;72.58;30.15;;;;;;;-2.72;78.22;101713.30;1798640;79;25658;-83
2020/12/02 05:07:30;;;;;;;67.10;30.50;;;;;;;-2.75;78.48;101717.83;1667847;84;25763;-83
2020/12/02 05:10:17;;;;;;;62.67;28.25;;;;;;;-2.74;78.49;101716.47;1642093;85;27334;-82
2020/12/02 05:12:47;;;;;;;56.55;26.40;;;;;;;-2.75;78.31;101712.59;1667017;84;25766;-83
2020/12/02 05:15:24;;;;;;;63.48;30.72;;;;;;;-2.78;78.37;101707.52;1621029;84;25487;-83
2020/12/02 05:18:18;;;;;;;63.68;29.55;;;;;;;-2.77;78.59;101713.98;1658098;85;25879;-83
2020/12/02 05:21:06;;;;;;;74.80;33.08;;;;;;;-2.77;78.52;101708.73;1658924;85;25831;-83
2020/12/02 05:23:33;;;;;;;63.87;27.30;;;;;;;-2.80;78.52;101710.19;1660676;85;27566;-84
2020/12/02 05:26:00;;;;;;;60.12;27.87;;;;;;;-2.77;78.65;101715.75;1590513;87;25783;-83
2020/12/02 05:28:36;;;;;;;61.95;28.57;;;;;;;-2.77;78.55;101719.22;1656813;83;25938;-84
2020/12/02 05:31:14;;;;;;;68.25;28.00;;;;;;;-2.74;78.60;101716.47;1640095;86;25820;-83
2020/12/02 05:33:41;;;;;;;63.58;30.05;;;;;;;-2.71;78.49;101722.00;1656495;86;25852;-83
2020/12/02 05:36:32;;;;;;;64.35;29.48;;;;;;;-2.69;78.39;101719.69;1626140;85;27860;-83
2020/12/02 05:39:20;;;;;;;63.65;30.15;;;;;;;-2.70;78.49;101721.09;1653249;85;25827;-83
2020/12/02 05:41:52;;;;;;;68.15;32.90;;;;;;;-2.67;78.42;101720.46;1656071;84;25905;-83
2020/12/02 05:44:39;;;;;;;61.60;32.38;;;;;;;-2.64;78.39;101722.09;1653166;86;25773;-84
2020/12/02 05:47:15;;;;;;;67.60;30.23;;;;;;;-2.61;78.39;101729.34;1651553;83;25914;-83
2020/12/02 05:49:52;;;;;;;78.55;35.70;;;;;;;-2.59;78.18;101726.66;1665010;85;27456;-84
2020/12/02 05:52:37;;;;;;;73.57;35.25;;;;;;;-2.57;78.23;101736.61;1637457;84;25867;-83
2020/12/02 05:55:15;;;;;;;80.83;37.10;;;;;;;-2.56;78.18;101729.97;1664844;83;25880;-83
2020/12/02 05:58:06;;;;;;;77.70;36.10;;;;;;;-2.54;78.18;101728.11;1646788;86;26082;-84
2020/12/02 06:00:33;;;;;;;;;;;;;;;-2.52;78.18;101727.58;1665284;85;25937;-84
2020/12/02 06:03:02;;;;;;;81.02;38.48;;;;;;;-2.52;78.09;101730.66;1647839;84;27286;-83
2020/12/02 06:05:30;;;;;;;90.40;39.38;;;;;;;-2.52;78.32;101735.44;1644628;85;26119;-83
2020/12/02 06:08:02;;;;;;;87.62;42.60;;;;;;;-2.53;78.16;101725.03;1610493;86;25474;-83
2020/12/02 06:10:47;;;;;;;86.47;41.30;;;;;;;-2.50;78.40;101731.42;1650905;85;25877;-83
2020/12/02 06:13:40;;;;;;;82.60;38.38;;;;;;;-2.44;78.39;101739.02;1631826;84;25738;-83
2020/12/02 06:16:12;;;;;;;82.50;42.13;;;;;;;-2.42;78.32;101735.84;1652241;83;27707;-83
2020/12/02 06:18:47;;;;;;;80.17;38.95;;;;;;;-2.33;78.30;101734.05;1881770;76;25927;-84
2020/12/02 06:21:41;;;;;;;77.78;37.70;;;;;;;-2.38;78.28;101730.38;1805511;77;25825;-83
2020/12/02 06:24:14;;;;;;;73.20;34.98;;;;;;;-2.36;78.30;101730.29;1787640;77;28629;-83
2020/12/02 06:26:46;;;;;;;83.80;39.25;;;;;;;-2.36;78.23;101732.45;1771031;80;25814;-83
2020/12/02 06:29:35;;;;;;;85.80;42.05;;;;;;;-2.37;78.16;101742.55;1756416;78;25817;-83
2020/12/02 06:32:13;;;;;;;79.40;38.75;;;;;;;-2.33;78.39;101745.03;1753093;80;25827;-83
2020/12/02 06:34:41;;;;;;;81.63;40.55;;;;;;;-2.29;78.26;101746.13;1758202;80;25826;-83
2020/12/02 06:37:22;;;;;;;83.10;40.50;;;;;;;-2.27;78.19;101744.27;1768452;80;28704;-83
2020/12/02 06:39:54;;;;;;;78.30;38.98;;;;;;;-2.26;78.17;101747.72;1744424;80;25753;-83
2020/12/02 06:42:36;;;;;;;83.25;40.70;;;;;;;-2.22;78.29;101749.28;1721560;79;25732;-83
2020/12/02 06:45:26;;;;;;;71.65;33.75;;;;;;;-2.17;78.26;101746.80;1780829;79;25934;-83
2020/12/02 06:48:01;;;;;;;72.60;38.02;;;;;;;-2.14;78.21;101747.97;1770677;80;26078;-83
2020/12/02 06:50:35;;;;;;;77.97;39.70;;;;;;;-2.12;78.07;101747.88;1773618;80;27522;-84
2020/12/02 06:53:17;;;;;;;64.72;30.20;;;;;;;-2.13;78.02;101744.40;1740813;81;26131;-83
2020/12/02 06:55:45;;;;;;;79.45;36.88;;;;;;;-2.12;77.87;101739.55;1760548;79;25752;-83
2020/12/02 06:58:19;;;;;;;62.00;32.23;;;;;;;-2.12;77.95;101742.18;1761695;80;25788;-83
2020/12/02 07:00:53;;;;;;;47.73;26.07;;;;;;;-2.09;77.90;101743.31;1719826;81;25853;-83
2020/12/02 07:03:34;;;;;;;53.78;27.00;;;;;;;-2.07;77.58;101740.60;1733514;80;27593;-83
2020/12/02 07:06:19;;;;;;;59.10;31.37;;;;;;;-2.05;77.74;101738.78;1726449;80;25738;-83
2020/12/02 07:08:50;;;;;;;71.92;35.43;;;;;;;-2.04;77.73;101741.31;1764828;80;25690;-83
2020/12/02 07:11:22;;;;;;;79.70;37.60;;;;;;;-2.01;77.64;101742.45;1744612;81;25719;-83
2020/12/02 07:14:18;;;;;;;63.60;29.50;;;;;;;-1.94;77.86;101735.96;1824922;78;25714;-84
2020/12/02 07:16:45;;;;;;;58.65;29.18;;;;;;;-1.95;77.89;101740.84;1755719;80;26104;-83
2020/12/02 07:19:16;;;;;;;50.95;26.35;;;;;;;-1.95;77.79;101746.55;1759984;80;27187;-83
2020/12/02 07:21:51;;;;;;;48.10;24.50;;;;;;;-1.94;77.78;101739.91;1788805;80;25731;-83
2020/12/02 07:24:30;;;;;;;43.38;22.20;;;;;;;-1.92;77.64;101745.06;1762273;80;26040;-84
2020/12/02 07:26:57;;;;;;;44.38;23.02;;;;;;;-1.93;77.46;101742.07;1769206;80;25714;-83
2020/12/02 07:29:27;;;;;;;44.35;23.15;;;;;;;-1.92;77.44;101747.23;1759975;78;25379;-83
2020/12/02 07:32:14;;;;;;;47.60;23.73;;;;;;;-1.91;77.41;101747.63;1762027;80;27587;-84
2020/12/02 07:34:42;;;;;;;50.60;24.77;;;;;;;-1.88;77.10;101746.63;1748515;78;25909;-83
2020/12/02 07:37:19;;;;;;;44.48;22.77;;;;;;;-1.89;77.20;101739.66;1740257;80;25840;-83
2020/12/02 07:39:51;;;;;;;49.50;27.48;;;;;;;-1.89;77.15;101749.71;1714071;83;25722;-84
2020/12/02 07:42:24;;;;;;;49.90;24.98;;;;;;;-1.86;77.16;101750.84;1766490;80;25756;-83
2020/12/02 07:45:07;;;;;;;51.65;25.17;;;;;;;-1.86;77.06;101754.78;1749070;80;28373;-84
2020/12/02 07:47:40;;;;;;;58.10;27.67;;;;;;;-1.84;77.24;101751.61;1754734;80;25757;-83
2020/12/02 07:50:24;;;;;;;61.48;31.20;;;;;;;-1.81;77.04;101755.41;1744405;81;25863;-83
2020/12/02 07:53:32;;;;;;;59.30;28.60;;;;;;;-1.76;77.04;101758.66;1835532;77;25710;-84
2020/12/02 07:56:04;;;;;;;52.17;26.15;;;;;;;-1.78;77.10;101762.28;1768201;80;26379;-84
2020/12/02 07:58:42;;;;;;;58.20;28.32;;;;;;;-1.74;77.09;101765.13;1762218;80;27318;-83
2020/12/02 08:01:38;;;;;;;64.62;29.57;;;;;;;-1.72;77.03;101758.87;1789338;78;26051;-84
2020/12/02 08:04:25;;;;;;;54.15;28.52;;;;;;;-1.69;77.10;101764.44;1755268;80;25830;-83
2020/12/02 08:07:07;;;;;;;52.67;26.82;;;;;;;-1.71;76.94;101756.61;1780486;80;25999;-84
2020/12/02 08:09:46;;;;;;;54.73;29.70;;;;;;;-1.68;76.89;101760.41;1784355;80;25724;-82
2020/12/02 08:12:22;;;;;;;51.75;27.25;;;;;;;-1.67;76.67;101756.01;1759126;80;27525;-83
2020/12/02 08:15:07;;;;;;;54.58;29.10;;;;;;;-1.66;76.72;101748.49;1727448;81;25840;-84
2020/12/02 08:17:40;;;;;;;57.78;29.42;;;;;;;-1.64;76.72;101744.86;1729299;81;26204;-83
2020/12/02 08:20:31;;;;;;;55.30;29.85;;;;;;;-1.63;76.79;101746.58;1699939;81;26507;-83
2020/12/02 08:23:11;;;;;;;59.48;29.20;;;;;;;-1.60;76.83;101748.16;1702197;82;26266;-84
2020/12/02 08:25:58;;;;;;;67.15;32.70;;;;;;;-1.58;76.71;101747.16;1748260;81;27538;-84
2020/12/02 08:28:31;;;;;;;60.65;31.48;;;;;;;-1.55;76.84;101740.89;1724752;81;25350;-83
2020/12/02 08:31:04;;;;;;;74.12;33.80;;;;;;;-1.54;76.69;101749.17;1726567;81;25888;-83
2020/12/02 08:33:31;;;;;;;51.90;24.55;;;;;;;-1.50;76.97;101754.65;1724539;83;25754;-83
2020/12/02 08:36:06;;;;;;;45.35;24.18;;;;;;;-1.47;76.94;101753.16;1677776;80;26499;-83
2020/12/02 08:38:39;;;;;;;46.75;24.45;;;;;;;-1.44;76.78;101756.94;1753753;80;28999;-83
2020/12/02 08:41:17;;;;;;;51.80;26.07;;;;;;;-1.43;76.71;101754.68;1728630;81;25720;-84
2020/12/02 08:43:49;;;;;;;68.12;30.70;;;;;;;-1.40;76.71;101753.67;1728174;81;25409;-84
2020/12/02 08:46:24;;;;;;;66.07;33.92;;;;;;;-1.47;76.22;101741.33;1706390;81;25873;-83
2020/12/02 08:49:00;;;;;;;59.55;30.90;;;;;;;-1.47;76.22;101741.33;1696367;82;25861;-83
2020/12/02 08:51:27;;;;;;;66.15;31.93;;;;;;;-1.43;76.23;101757.80;1740928;81;28373;-83
2020/12/02 08:53:56;;;;;;;61.60;29.82;;;;;;;-1.42;76.44;101749.82;1739968;81;25752;-84
2020/12/02 08:56:35;;;;;;;59.58;29.80;;;;;;;-1.37;76.35;101751.75;1726233;81;26053;-84
2020/12/02 08:59:09;;;;;;;45.48;23.62;;;;;;;-1.36;76.24;101744.69;1731666;81;25876;-84
2020/12/02 09:01:37;;;;;;;41.77;22.82;;;;;;;-1.40;75.86;101745.33;1691259;83;25836;-84
2020/12/02 09:04:05;;;;;;;42.03;22.15;;;;;;;-1.42;76.04;101744.56;1735047;81;27534;-84
2020/12/02 09:06:35;;;;;;;48.73;26.07;;;;;;;-1.42;75.71;101741.94;1653484;81;25446;-84
2020/12/02 09:09:04;;;;;;;50.90;26.02;;;;;;;-1.42;75.71;101741.94;1691129;81;25880;-85
2020/12/02 09:11:36;;;;;;;51.02;25.70;;;;;;;-1.41;75.61;101743.62;1737993;81;25835;-84
2020/12/02 09:14:05;;;;;;;48.28;23.50;;;;;;;-1.40;75.88;101738.76;1717876;82;25766;-84
2020/12/02 09:16:39;;;;;;;41.13;22.02;;;;;;;-1.37;76.07;101737.75;1662538;83;27538;-84
2020/12/02 09:19:11;;;;;;;47.62;25.02;;;;;;;-1.35;75.72;101733.27;1654196;85;26055;-84
2020/12/02 09:21:39;;;;;;;67.62;34.40;;;;;;;-1.36;75.55;101725.84;1698725;83;25906;-83
2020/12/02 09:24:07;;;;;;;82.70;38.78;;;;;;;-1.39;75.53;101720.73;1751638;80;25810;-85
2020/12/02 09:26:35;;;;;;;47.60;25.85;;;;;;;-1.40;75.46;101722.99;1690632;81;25658;-86
2020/12/02 09:29:08;;;;;;;50.10;25.23;;;;;;;-1.39;75.68;101719.91;1685907;82;27529;-85
2020/12/02 09:31:36;;;;;;;44.18;23.75;;;;;;;-1.35;75.76;101715.72;1699973;81;25904;-84
2020/12/02 09:34:06;;;;;;;40.73;21.42;;;;;;;-1.34;75.49;101704.26;1724994;81;25813;-84
2020/12/02 09:36:36;;;;;;;40.92;22.27;;;;;;;-1.34;75.49;101704.26;1639397;84;26183;-83
2020/12/02 09:39:07;;;;;;;37.15;21.45;;;;;;;-1.37;75.32;101698.33;1683982;84;25852;-84
2020/12/02 09:42:04;;;;;;;40.25;21.65;;;;;;;-1.38;75.51;101692.22;1720430;82;28255;-84
2020/12/02 09:44:53;;;;;;;36.33;21.57;;;;;;;-1.39;75.39;101690.52;1738255;80;25878;-84
2020/12/02 09:47:29;;;;;;;41.50;20.12;;;;;;;-1.34;75.25;101683.23;1785846;78;25768;-84
2020/12/02 09:49:56;;;;;;;36.73;20.75;;;;;;;-1.41;75.30;101671.36;1709888;80;25815;-84
2020/12/02 09:52:44;;;;;;;42.98;22.77;;;;;;;-1.39;75.57;101676.06;1743535;80;27392;-84
2020/12/02 09:55:22;;;;;;;33.60;19.77;;;;;;;-1.32;75.24;101672.62;1759685;80;26329;-84
2020/12/02 09:57:52;;;;;;;34.58;20.23;;;;;;;-1.32;75.24;101672.62;1705760;83;25721;-83
2020/12/02 10:00:23;;;;;;;33.63;20.10;;;;;;;-1.34;74.97;101667.92;1694364;81;25912;-84
2020/12/02 10:03:19;;;;;;;34.98;20.48;;;;;;;-1.36;74.99;101668.48;1700291;82;25861;-84
2020/12/02 10:06:16;;;;;;;39.05;22.17;;;;;;;-1.40;74.58;101662.55;1723165;82;28477;-83
2020/12/02 10:09:22;;;;;;;37.28;20.68;;;;;;;-1.48;74.32;101652.94;1706125;82;25463;-84
2020/12/02 10:12:19;;;;;;;41.20;23.85;;;;;;;-1.48;74.32;101652.94;1692486;83;25945;-83
2020/12/02 10:15:03;;;;;;;38.95;22.13;;;;;;;-1.46;74.74;101653.70;1681076;83;25850;-84
2020/12/02 10:17:45;;;;;;;42.48;23.18;;;;;;;-1.42;75.14;101651.73;1679023;83;26437;-84
2020/12/02 10:20:24;;;;;;;36.45;20.10;;;;;;;-1.36;75.22;101649.63;1702875;83;27597;-84
2020/12/02 10:23:09;;;;;;;36.28;21.50;;;;;;;-1.28;75.37;101647.90;1668221;84;26687;-83
2020/12/02 10:26:03;;;;;;;38.15;23.15;;;;;;;-1.23;74.75;101648.01;1684053;82;25765;-83
2020/12/02 10:28:41;;;;;;;36.10;22.25;;;;;;;-1.17;74.92;101642.86;1706172;82;25747;-85
2020/12/02 10:31:23;;;;;;;37.60;21.77;;;;;;;-1.13;74.24;101635.17;1692270;82;26114;-83
2020/12/02 10:34:13;;;;;;;38.73;19.95;;;;;;;-1.09;73.97;101633.60;1835229;77;25738;-84
2020/12/02 10:36:57;;;;;;;47.20;26.15;;;;;;;-1.10;74.35;101638.50;1765190;80;25785;-84
2020/12/02 10:39:30;;;;;;;43.92;25.40;;;;;;;-1.07;73.97;101642.25;1782108;78;28088;-84
2020/12/02 10:42:28;;;;;;;37.78;20.10;;;;;;;-1.07;74.13;101636.98;1791434;78;25943;-84
2020/12/02 10:45:15;;;;;;;36.33;19.32;;;;;;;-1.03;74.33;101619.28;1786958;78;25423;-84
2020/12/02 10:48:16;;;;;;;31.85;19.37;;;;;;;-1.03;74.33;101619.28;1770051;78;25917;-84
2020/12/02 10:50:43;;;;;;;37.58;19.15;;;;;;;-0.89;74.22;101630.69;1784967;78;25489;-84
2020/12/02 10:53:18;;;;;;;33.83;19.67;;;;;;;-0.90;74.09;101625.53;1802159;78;27533;-84
2020/12/02 10:55:45;;;;;;;36.50;20.80;;;;;;;-0.88;74.00;101621.02;1769271;80;25766;-84
2020/12/02 10:58:26;;;;;;;43.63;23.92;;;;;;;-0.85;74.01;101618.20;1752988;78;25709;-83
2020/12/02 11:00:57;;;;;;;38.75;21.27;;;;;;;-0.81;73.94;101614.45;1731153;78;25960;-84
2020/12/02 11:03:31;;;;;;;35.00;22.40;;;;;;;-0.79;74.00;101610.80;1807661;78;25592;-84
2020/12/02 11:06:16;;;;;;;32.38;19.27;;;;;;;-0.73;73.61;101610.07;1771638;78;28426;-83
2020/12/02 11:09:27;;;;;;;33.60;21.45;;;;;;;-0.73;73.61;101610.07;1775229;78;25907;-84
2020/12/02 11:12:05;;;;;;;39.48;21.90;;;;;;;-0.73;73.13;101609.61;1746571;78;26191;-85
2020/12/02 11:14:55;;;;;;;42.48;25.05;;;;;;;-0.83;72.96;101608.43;1808128;78;25869;-83
2020/12/02 11:17:31;;;;;;;38.33;22.00;;;;;;;-0.83;73.15;101602.70;1769927;78;25975;-83
2020/12/02 11:20:16;;;;;;;41.68;24.95;;;;;;;-0.80;73.45;101603.86;1775065;78;28416;-84
2020/12/02 11:23:03;;;;;;;93.00;48.78;;;;;;;-0.75;73.47;101599.64;1766791;79;26369;-84
2020/12/02 11:25:57;;;;;;;110.25;65.80;;;;;;;-0.72;73.31;101594.19;1789365;79;25756;-84
2020/12/02 11:28:24;;;;;;;82.40;51.63;;;;;;;-0.71;73.19;101591.95;1779747;78;26169;-84
2020/12/02 11:30:52;;;;;;;91.78;53.20;;;;;;;-0.68;73.26;101588.30;1760681;78;25905;-83
2020/12/02 11:34:00;;;;;;;58.58;37.45;;;;;;;-0.65;73.20;101591.58;1747245;78;27836;-85
2020/12/02 11:36:42;;;;;;;52.55;32.05;;;;;;;-0.68;73.15;101580.41;1801296;78;25861;-83
2020/12/02 11:39:24;;;;;;;43.13;25.85;;;;;;;-0.65;73.09;101581.05;1802746;78;25773;-84
2020/12/02 11:42:27;;;;;;;42.17;24.43;;;;;;;-0.62;73.08;101574.77;1779937;78;25750;-83
2020/12/02 11:45:18;;;;;;;67.27;40.48;;;;;;;-0.70;72.84;101560.74;1731139;81;25427;-84
2020/12/02 11:48:10;;;;;;;72.50;47.58;;;;;;;-0.70;72.84;101560.74;1745136;81;27599;-83
2020/12/02 11:50:52;;;;;;;42.62;25.68;;;;;;;-0.65;72.63;101563.95;1728511;81;26197;-84